Alberton, Montana
Current Conditions -  °F | °C
As of 10:53 AM on Friday 21 Nov 2014 (Local Time) from KMSO Reporting Station
Haze Haze  
Wind Chill: 31°   Ceiling: 6000
Heat Index: 31°   Visibility: 6mi
Dew Point: 26°   Wind: 0mph
Humidity: 82%   Direction: NA
Pressure: 29.93"   Gusts: NA
Location:  47°N, 114.47°W
Report Text: KMSO 211753Z 00000KT 6SM HZ BKN060 OVC075 M01/M03 A2993 RMK AO2 SLP167 T10061033 11006 21033 58004
Loading
Personal Weather Stations






























Interactive Weather Map New forecast layout! Learn more

10-Day Weather Forecast

Advertisements
Track Severe Weather on mobile